Time,TemperatureF,DewpointF,PressureIn,WindDirection,WindDirectionDegrees,WindSpeedMPH,WindSpeedGustMPH,Humidity,HourlyPrecipIn,Conditions,Clouds,dailyrainin,SoftwareType,DateUTC
2013-04-10 00:00:00,49.2,45.2,29.97,SE,124,2.0,2.0,86,0.00,,,0.00,Wunderground v.1.15,2013-04-10 04:00:00,
2013-04-10 00:02:00,49.2,45.2,29.97,SSW,207,2.0,9.0,86,0.00,,,0.00,Wunderground v.1.15,2013-04-10 04:02:00,
2013-04-10 00:04:00,49.1,45.1,29.96,East,85,2.0,9.0,86,0.00,,,0.00,Wunderground v.1.15,2013-04-10 04:04:00,
2013-04-10 00:06:00,49.1,45.1,29.96,SSW,195,2.0,9.0,86,0.00,,,0.00,Wunderground v.1.15,2013-04-10 04:06:00,
2013-04-10 00:12:00,49.0,45.0,29.96,ESE,113,2.0,9.0,86,0.00,,,0.00,Wunderground v.1.15,2013-04-10 04:12:00,
2013-04-10 00:18:00,48.8,44.8,29.96,WNW,286,2.0,9.0,86,0.00,,,0.00,Wunderground v.1.15,2013-04-10 04:18:00,
2013-04-10 00:24:00,48.7,45.0,29.96,SSW,198,2.0,9.0,87,0.00,,,0.00,Wunderground v.1.15,2013-04-10 04:24:00,
2013-04-10 00:30:00,48.4,44.7,29.97,SSW,205,2.0,9.0,87,0.00,,,0.00,Wunderground v.1.15,2013-04-10 04:30:00,
2013-04-10 00:35:00,48.3,44.6,29.97,SW,214,1.0,9.0,87,0.00,,,0.00,Wunderground v.1.15,2013-04-10 04:35:00,
2013-04-10 00:40:00,48.1,44.4,29.97,SSW,194,2.0,2.0,87,0.00,,,0.00,Wunderground v.1.15,2013-04-10 04:40:00,
2013-04-10 00:45:00,47.9,44.2,29.97,South,177,1.0,9.0,87,0.00,,,0.00,Wunderground v.1.15,2013-04-10 04:45:00,
2013-04-10 00:50:00,47.7,44.0,29.97,SE,131,1.0,1.0,87,0.00,,,0.00,Wunderground v.1.15,2013-04-10 04:50:00,
2013-04-10 00:55:00,47.5,44.1,29.96,SW,221,1.0,9.0,88,0.00,,,0.00,Wunderground v.1.15,2013-04-10 04:55:00,
2013-04-10 01:02:00,47.3,43.9,29.96,WSW,245,2.0,9.0,88,0.00,,,0.00,Wunderground v.1.15,2013-04-10 05:02:00,
2013-04-10 01:07:00,47.1,43.7,29.94,East,86,2.0,9.0,88,0.00,,,0.00,Wunderground v.1.15,2013-04-10 05:07:00,
2013-04-10 01:12:00,46.9,43.5,29.94,South,172,2.0,9.0,88,0.00,,,0.00,Wunderground v.1.15,2013-04-10 05:12:00,
2013-04-10 01:17:00,46.9,43.5,29.93,SSW,203,3.0,9.0,88,0.00,,,0.00,Wunderground v.1.15,2013-04-10 05:17:00,
2013-04-10 01:22:00,46.9,43.8,29.93,South,188,3.0,9.0,89,0.00,,,0.00,Wunderground v.1.15,2013-04-10 05:22:00,
2013-04-10 01:28:00,47.0,43.6,29.94,SSE,158,2.0,9.0,88,0.00,,,0.00,Wunderground v.1.15,2013-04-10 05:28:00,
2013-04-10 01:33:00,46.9,43.5,29.94,SSW,212,2.0,9.0,88,0.00,,,0.00,Wunderground v.1.15,2013-04-10 05:33:00,
2013-04-10 01:38:00,47.0,43.9,29.95,SW,218,1.0,9.0,89,0.00,,,0.00,Wunderground v.1.15,2013-04-10 05:38:00,
2013-04-10 01:44:00,47.1,44.0,29.94,South,172,1.0,9.0,89,0.00,,,0.00,Wunderground v.1.15,2013-04-10 05:44:00,
2013-04-10 01:49:00,47.2,43.8,29.93,East,91,2.0,9.0,88,0.00,,,0.00,Wunderground v.1.15,2013-04-10 05:49:00,
2013-04-10 01:55:00,47.2,43.8,29.92,SSE,156,2.0,9.0,88,0.00,,,0.00,Wunderground v.1.15,2013-04-10 05:55:00,
2013-04-10 02:00:00,47.3,43.9,29.92,South,191,2.0,2.0,88,0.00,,,0.00,Wunderground v.1.15,2013-04-10 06:00:00,
2013-04-10 02:06:00,47.3,43.9,29.92,SSE,155,2.0,9.0,88,0.00,,,0.00,Wunderground v.1.15,2013-04-10 06:06:00,
2013-04-10 02:12:00,47.4,43.7,29.91,ESE,118,3.0,9.0,87,0.00,,,0.00,Wunderground v.1.15,2013-04-10 06:12:00,
2013-04-10 02:17:00,47.4,43.7,29.91,ENE,58,2.0,9.0,87,0.00,,,0.00,Wunderground v.1.15,2013-04-10 06:17:00,
2013-04-10 02:23:00,47.4,43.7,29.91,SE,128,1.0,9.0,87,0.00,,,0.00,Wunderground v.1.15,2013-04-10 06:23:00,
2013-04-10 02:28:00,47.3,43.6,29.91,North,359,1.0,9.0,87,0.00,,,0.00,Wunderground v.1.15,2013-04-10 06:28:00,
2013-04-10 02:34:00,47.3,43.9,29.91,SE,145,1.0,9.0,88,0.00,,,0.00,Wunderground v.1.15,2013-04-10 06:34:00,
2013-04-10 02:39:00,47.3,43.6,29.91,SE,128,1.0,9.0,87,0.00,,,0.00,Wunderground v.1.15,2013-04-10 06:39:00,
2013-04-10 02:45:00,47.4,43.7,29.90,ESE,108,1.0,9.0,87,0.00,,,0.00,Wunderground v.1.15,2013-04-10 06:45:00,
2013-04-10 02:50:00,47.4,43.7,29.90,SSW,211,1.0,9.0,87,0.00,,,0.00,Wunderground v.1.15,2013-04-10 06:50:00,
2013-04-10 02:55:00,47.5,43.8,29.89,East,89,2.0,9.0,87,0.00,,,0.00,Wunderground v.1.15,2013-04-10 06:55:00,
2013-04-10 03:00:00,47.5,43.8,29.89,SE,142,2.0,2.0,87,0.00,,,0.00,Wunderground v.1.15,2013-04-10 07:00:00,
2013-04-10 03:06:00,47.6,43.9,29.90,SSW,198,2.0,9.0,87,0.00,,,0.00,Wunderground v.1.15,2013-04-10 07:06:00,
2013-04-10 03:11:00,47.7,44.0,29.90,ESE,115,2.0,9.0,87,0.00,,,0.00,Wunderground v.1.15,2013-04-10 07:11:00,
2013-04-10 03:17:00,47.8,44.1,29.90,ENE,72,2.0,9.0,87,0.00,,,0.00,Wunderground v.1.15,2013-04-10 07:17:00,
2013-04-10 03:23:00,48.0,44.3,29.90,NNE,18,2.0,9.0,87,0.00,,,0.00,Wunderground v.1.15,2013-04-10 07:23:00,
2013-04-10 03:29:00,48.1,44.1,29.91,North,359,3.0,9.0,86,0.00,,,0.00,Wunderground v.1.15,2013-04-10 07:29:00,
2013-04-10 03:34:00,48.2,44.2,29.93,NNW,332,3.0,9.0,86,0.00,,,0.00,Wunderground v.1.15,2013-04-10 07:34:00,
2013-04-10 03:39:00,48.3,44.3,29.96,NNW,336,5.0,9.0,86,0.00,,,0.00,Wunderground v.1.15,2013-04-10 07:39:00,
2013-04-10 03:44:00,48.3,44.3,29.94,NNE,32,6.0,11.0,86,0.00,,,0.00,Wunderground v.1.15,2013-04-10 07:44:00,
2013-04-10 03:49:00,48.4,44.1,29.98,North,359,6.0,11.0,85,0.00,,,0.00,Wunderground v.1.15,2013-04-10 07:49:00,
2013-04-10 03:54:00,48.5,44.2,29.98,ESE,104,6.0,9.0,85,0.00,,,0.00,Wunderground v.1.15,2013-04-10 07:54:00,
2013-04-10 04:00:00,48.3,44.6,29.99,NW,316,5.0,10.0,87,0.36,,,0.02,Wunderground v.1.15,2013-04-10 08:00:00,
2013-04-10 04:05:00,47.7,44.6,29.98,ENE,57,4.0,10.0,89,0.27,,,0.05,Wunderground v.1.15,2013-04-10 08:05:00,
2013-04-10 04:10:00,47.3,44.8,29.97,NE,50,4.0,4.0,91,0.26,,,0.07,Wunderground v.1.15,2013-04-10 08:10:00,
2013-04-10 04:15:00,47.1,44.9,29.96,NE,41,4.0,9.0,92,0.16,,,0.08,Wunderground v.1.15,2013-04-10 08:15:00,
2013-04-10 04:20:00,46.9,44.7,29.95,ENE,68,3.0,3.0,92,0.13,,,0.09,Wunderground v.1.15,2013-04-10 08:20:00,
2013-04-10 04:26:00,46.9,44.7,29.93,SSW,201,3.0,9.0,92,0.08,,,0.10,Wunderground v.1.15,2013-04-10 08:26:00,
2013-04-10 04:32:00,46.9,45.0,29.91,ENE,65,3.0,9.0,93,0.08,,,0.10,Wunderground v.1.15,2013-04-10 08:32:00,
2013-04-10 04:38:00,46.9,45.0,29.91,West,271,3.0,9.0,93,0.05,,,0.10,Wunderground v.1.15,2013-04-10 08:38:00,
2013-04-10 04:43:00,46.8,44.9,29.89,ENE,65,1.0,9.0,93,0.05,,,0.11,Wunderground v.1.15,2013-04-10 08:43:00,
2013-04-10 04:48:00,46.8,44.9,29.87,ENE,78,1.0,9.0,93,0.05,,,0.11,Wunderground v.1.15,2013-04-10 08:48:00,
2013-04-10 04:53:00,47.0,45.1,29.86,ESE,107,3.0,9.0,93,0.04,,,0.11,Wunderground v.1.15,2013-04-10 08:53:00,
2013-04-10 04:58:00,47.1,45.2,29.86,SSE,155,4.0,9.0,93,0.00,,,0.11,Wunderground v.1.15,2013-04-10 08:58:00,
2013-04-10 05:04:00,47.1,44.9,29.86,NNW,339,4.0,9.0,92,0.00,,,0.11,Wunderground v.1.15,2013-04-10 09:04:00,
2013-04-10 05:10:00,47.1,44.9,29.86,ENE,58,4.0,9.0,92,0.00,,,0.11,Wunderground v.1.15,2013-04-10 09:10:00,
2013-04-10 05:15:00,47.0,44.8,29.86,NNE,25,4.0,9.0,92,0.00,,,0.11,Wunderground v.1.15,2013-04-10 09:15:00,
2013-04-10 05:20:00,46.8,44.6,29.86,NNE,13,2.0,2.0,92,0.00,,,0.11,Wunderground v.1.15,2013-04-10 09:20:00,
2013-04-10 05:25:00,46.8,44.6,29.85,West,269,2.0,9.0,92,0.00,,,0.11,Wunderground v.1.15,2013-04-10 09:25:00,
2013-04-10 05:32:00,46.8,44.6,29.85,North,358,2.0,9.0,92,0.00,,,0.11,Wunderground v.1.15,2013-04-10 09:32:00,
2013-04-10 05:38:00,46.8,44.6,29.86,West,269,1.0,9.0,92,0.00,,,0.11,Wunderground v.1.15,2013-04-10 09:38:00,
2013-04-10 05:44:00,46.6,44.7,29.86,South,178,1.0,9.0,93,0.00,,,0.11,Wunderground v.1.15,2013-04-10 09:44:00,
2013-04-10 05:50:00,46.5,44.6,29.86,NNW,329,1.0,9.0,93,0.00,,,0.11,Wunderground v.1.15,2013-04-10 09:50:00,
2013-04-10 05:55:00,46.4,44.5,29.86,NNW,328,0.0,9.0,93,0.00,,,0.11,Wunderground v.1.15,2013-04-10 09:55:00,
2013-04-10 06:01:00,46.3,44.4,29.87,West,264,0.0,9.0,93,0.00,,,0.11,Wunderground v.1.15,2013-04-10 10:01:00,
2013-04-10 06:07:00,46.2,44.3,29.88,West,264,0.0,9.0,93,0.00,,,0.11,Wunderground v.1.15,2013-04-10 10:07:00,
2013-04-10 06:12:00,46.1,44.5,29.88,West,264,0.0,9.0,94,0.00,,,0.11,Wunderground v.1.15,2013-04-10 10:12:00,
2013-04-10 06:18:00,46.0,44.4,29.88,ENE,59,1.0,9.0,94,0.00,,,0.11,Wunderground v.1.15,2013-04-10 10:18:00,
2013-04-10 06:23:00,46.0,44.4,29.88,ENE,60,1.0,9.0,94,0.00,,,0.11,Wunderground v.1.15,2013-04-10 10:23:00,
2013-04-10 06:29:00,46.0,44.4,29.89,ENE,60,0.0,9.0,94,0.00,,,0.11,Wunderground v.1.15,2013-04-10 10:29:00,
2013-04-10 06:34:00,46.1,44.5,29.90,ENE,60,0.0,9.0,94,0.00,,,0.11,Wunderground v.1.15,2013-04-10 10:34:00,
2013-04-10 06:39:00,46.1,44.7,29.90,ENE,60,0.0,9.0,95,0.00,,,0.11,Wunderground v.1.15,2013-04-10 10:39:00,
2013-04-10 06:44:00,46.1,44.7,29.90,ENE,60,0.0,9.0,95,0.00,,,0.11,Wunderground v.1.15,2013-04-10 10:44:00,
2013-04-10 06:50:00,46.2,44.8,29.90,NE,38,0.0,9.0,95,0.00,,,0.11,Wunderground v.1.15,2013-04-10 10:50:00,
2013-04-10 06:55:00,46.3,44.9,29.91,NNW,331,0.0,9.0,95,0.00,,,0.11,Wunderground v.1.15,2013-04-10 10:55:00,
2013-04-10 07:00:00,46.3,44.9,29.91,NNW,330,1.0,9.0,95,0.00,,,0.11,Wunderground v.1.15,2013-04-10 11:00:00,
2013-04-10 07:05:00,46.5,45.1,29.91,NE,47,1.0,9.0,95,0.00,,,0.11,Wunderground v.1.15,2013-04-10 11:05:00,
2013-04-10 07:11:00,46.7,45.3,29.91,NE,34,1.0,9.0,95,0.00,,,0.11,Wunderground v.1.15,2013-04-10 11:11:00,
2013-04-10 07:16:00,46.9,45.5,29.91,NNW,347,1.0,9.0,95,0.00,,,0.11,Wunderground v.1.15,2013-04-10 11:16:00,
2013-04-10 07:22:00,47.1,45.5,29.92,North,8,1.0,9.0,94,0.00,,,0.11,Wunderground v.1.15,2013-04-10 11:22:00,
2013-04-10 07:27:00,47.2,45.6,29.91,SE,145,1.0,9.0,94,0.00,,,0.11,Wunderground v.1.15,2013-04-10 11:27:00,
2013-04-10 07:33:00,47.3,45.7,29.91,NNW,330,0.0,9.0,94,0.00,,,0.11,Wunderground v.1.15,2013-04-10 11:33:00,
2013-04-10 07:39:00,47.5,45.9,29.92,NE,44,2.0,9.0,94,0.00,,,0.11,Wunderground v.1.15,2013-04-10 11:39:00,
2013-04-10 07:44:00,47.5,45.9,29.92,NE,49,2.0,9.0,94,0.00,,,0.11,Wunderground v.1.15,2013-04-10 11:44:00,
2013-04-10 07:50:00,47.8,46.2,29.92,North,11,2.0,2.0,94,0.00,,,0.11,Wunderground v.1.15,2013-04-10 11:50:00,
2013-04-10 07:55:00,47.8,45.9,29.92,North,360,2.0,9.0,93,0.00,,,0.11,Wunderground v.1.15,2013-04-10 11:55:00,
2013-04-10 08:00:00,47.9,46.0,29.92,NE,51,2.0,9.0,93,0.00,,,0.11,Wunderground v.1.15,2013-04-10 12:00:00,
2013-04-10 08:06:00,48.1,46.2,29.93,NE,41,2.0,9.0,93,0.00,,,0.11,Wunderground v.1.15,2013-04-10 12:06:00,
2013-04-10 08:12:00,48.3,46.4,29.92,NNE,18,3.0,9.0,93,0.00,,,0.11,Wunderground v.1.15,2013-04-10 12:12:00,
2013-04-10 08:17:00,48.3,46.4,29.93,ENE,59,3.0,9.0,93,0.00,,,0.11,Wunderground v.1.15,2013-04-10 12:17:00,
2013-04-10 08:22:00,48.3,46.1,29.93,North,349,3.0,9.0,92,0.00,,,0.11,Wunderground v.1.15,2013-04-10 12:22:00,
2013-04-10 08:28:00,48.6,46.7,29.93,NE,54,2.0,9.0,93,0.00,,,0.11,Wunderground v.1.15,2013-04-10 12:28:00,
2013-04-10 08:33:00,48.9,46.7,29.92,NNE,23,1.0,9.0,92,0.00,,,0.11,Wunderground v.1.15,2013-04-10 12:33:00,
2013-04-10 08:38:00,48.7,46.2,29.92,East,79,1.0,9.0,91,0.00,,,0.11,Wunderground v.1.15,2013-04-10 12:38:00,
2013-04-10 08:44:00,49.0,46.8,29.93,ENE,76,2.0,9.0,92,0.00,,,0.11,Wunderground v.1.15,2013-04-10 12:44:00,
2013-04-10 08:49:00,49.4,47.2,29.93,SW,236,1.0,9.0,92,0.00,,,0.11,Wunderground v.1.15,2013-04-10 12:49:00,
2013-04-10 08:55:00,49.5,47.0,29.93,NNE,30,0.0,9.0,91,0.00,,,0.11,Wunderground v.1.15,2013-04-10 12:55:00,
2013-04-10 09:02:00,49.4,46.6,29.93,WNW,298,1.0,9.0,90,0.00,,,0.11,Wunderground v.1.15,2013-04-10 13:02:00,
2013-04-10 09:07:00,49.5,46.7,29.93,NE,34,1.0,9.0,90,0.00,,,0.11,Wunderground v.1.15,2013-04-10 13:07:00,
2013-04-10 09:13:00,49.4,46.6,29.93,North,5,2.0,9.0,90,0.00,,,0.11,Wunderground v.1.15,2013-04-10 13:13:00,
2013-04-10 09:18:00,49.3,46.5,29.93,NW,314,2.0,9.0,90,0.00,,,0.11,Wunderground v.1.15,2013-04-10 13:18:00,
2013-04-10 09:24:00,49.5,47.0,29.93,NW,308,2.0,9.0,91,0.00,,,0.11,Wunderground v.1.15,2013-04-10 13:24:00,
2013-04-10 09:29:00,49.7,47.2,29.93,NNE,20,1.0,9.0,91,0.00,,,0.11,Wunderground v.1.15,2013-04-10 13:29:00,
2013-04-10 09:34:00,49.7,46.9,29.93,ENE,63,2.0,9.0,90,0.00,,,0.11,Wunderground v.1.15,2013-04-10 13:34:00,
2013-04-10 09:39:00,49.9,47.1,29.94,West,276,3.0,9.0,90,0.00,,,0.11,Wunderground v.1.15,2013-04-10 13:39:00,
2013-04-10 09:45:00,50.1,47.3,29.94,NW,322,2.0,9.0,90,0.00,,,0.11,Wunderground v.1.15,2013-04-10 13:45:00,
2013-04-10 09:50:00,50.1,47.3,29.94,North,351,2.0,9.0,90,0.00,,,0.11,Wunderground v.1.15,2013-04-10 13:50:00,
2013-04-10 09:55:00,50.1,47.3,29.94,NW,319,3.0,9.0,90,0.00,,,0.11,Wunderground v.1.15,2013-04-10 13:55:00,
2013-04-10 10:00:00,50.3,47.5,29.94,NNE,30,3.0,9.0,90,0.00,,,0.11,Wunderground v.1.15,2013-04-10 14:00:00,
2013-04-10 10:06:00,50.4,47.3,29.94,NNE,23,3.0,9.0,89,0.00,,,0.11,Wunderground v.1.15,2013-04-10 14:06:00,
2013-04-10 10:12:00,50.6,47.5,29.94,West,259,3.0,9.0,89,0.00,,,0.11,Wunderground v.1.15,2013-04-10 14:12:00,
2013-04-10 11:03:00,54.4,49.7,29.94,NNW,340,2.0,3.0,84,0.00,,,0.11,Wunderground v.1.15,2013-04-10 15:03:00,
2013-04-10 11:09:00,55.2,50.4,29.94,WSW,248,2.0,2.0,84,0.00,,,0.11,Wunderground v.1.15,2013-04-10 15:09:00,
2013-04-10 11:15:00,55.6,49.9,29.95,WSW,256,1.0,5.0,81,0.00,,,0.11,Wunderground v.1.15,2013-04-10 15:15:00,
2013-04-10 11:22:00,55.8,49.7,29.95,East,81,3.0,5.0,80,0.00,,,0.11,Wunderground v.1.15,2013-04-10 15:22:00,
2013-04-10 11:27:00,56.1,50.3,29.94,NW,322,3.0,5.0,81,0.00,,,0.11,Wunderground v.1.15,2013-04-10 15:27:00,
2013-04-10 11:33:00,56.3,50.5,29.94,NE,47,4.0,5.0,81,0.00,,,0.11,Wunderground v.1.15,2013-04-10 15:33:00,
2013-04-10 11:38:00,56.3,50.5,29.94,ESE,122,5.0,6.0,81,0.00,,,0.11,Wunderground v.1.15,2013-04-10 15:38:00,
2013-04-10 11:43:00,56.8,51.4,29.94,NW,320,4.0,6.0,82,0.00,,,0.11,Wunderground v.1.15,2013-04-10 15:43:00,
2013-04-10 11:49:00,57.5,51.0,29.95,NNW,339,4.0,4.0,79,0.00,,,0.11,Wunderground v.1.15,2013-04-10 15:49:00,
2013-04-10 11:54:00,57.5,51.4,29.94,ESE,113,4.0,4.0,80,0.00,,,0.11,Wunderground v.1.15,2013-04-10 15:54:00,
2013-04-10 11:59:00,58.5,52.4,29.94,NNW,335,3.0,3.0,80,0.00,,,0.11,Wunderground v.1.15,2013-04-10 15:59:00,
2013-04-10 12:04:00,59.2,52.0,29.94,NW,304,3.0,5.0,77,0.00,,,0.11,Wunderground v.1.15,2013-04-10 16:04:00,
2013-04-10 12:10:00,59.7,52.1,29.93,NNE,28,4.0,5.0,76,0.00,,,0.11,Wunderground v.1.15,2013-04-10 16:10:00,
2013-04-10 12:15:00,60.2,51.9,29.93,East,79,5.0,6.0,74,0.00,,,0.11,Wunderground v.1.15,2013-04-10 16:15:00,
2013-04-10 12:21:00,60.5,52.2,29.93,NNE,12,5.0,5.0,74,0.00,,,0.11,Wunderground v.1.15,2013-04-10 16:21:00,
2013-04-10 12:27:00,61.3,52.6,29.93,WNW,303,5.0,9.0,73,0.00,,,0.11,Wunderground v.1.15,2013-04-10 16:27:00,
2013-04-10 12:32:00,61.8,52.3,29.93,NNW,341,3.0,5.0,71,0.00,,,0.11,Wunderground v.1.15,2013-04-10 16:32:00,
2013-04-10 12:38:00,62.6,53.1,29.92,SW,236,3.0,5.0,71,0.00,,,0.11,Wunderground v.1.15,2013-04-10 16:38:00,
2013-04-10 12:45:00,64.1,54.5,29.93,NW,321,2.0,5.0,71,0.00,,,0.11,Wunderground v.1.15,2013-04-10 16:45:00,
2013-04-10 12:52:00,64.3,53.5,29.93,NE,44,3.0,7.0,68,0.00,,,0.11,Wunderground v.1.15,2013-04-10 16:52:00,
2013-04-10 12:58:00,63.8,52.6,29.93,SSE,165,3.0,7.0,67,0.00,,,0.11,Wunderground v.1.15,2013-04-10 16:58:00,
2013-04-10 13:03:00,64.2,52.6,29.93,WSW,248,2.0,5.0,66,0.00,,,0.11,Wunderground v.1.15,2013-04-10 17:03:00,
2013-04-10 13:08:00,64.7,53.1,29.93,North,352,2.0,5.0,66,0.00,,,0.11,Wunderground v.1.15,2013-04-10 17:08:00,
2013-04-10 13:14:00,65.0,52.5,29.93,NE,34,3.0,5.0,64,0.00,,,0.11,Wunderground v.1.15,2013-04-10 17:14:00,
2013-04-10 13:19:00,65.0,53.4,29.93,SW,219,3.0,5.0,66,0.00,,,0.11,Wunderground v.1.15,2013-04-10 17:19:00,
2013-04-10 13:25:00,65.5,53.0,29.92,WSW,246,2.0,5.0,64,0.00,,,0.11,Wunderground v.1.15,2013-04-10 17:25:00,
2013-04-10 13:31:00,65.9,52.5,29.92,SW,219,2.0,4.0,62,0.00,,,0.11,Wunderground v.1.15,2013-04-10 17:31:00,
2013-04-10 13:36:00,66.5,53.5,29.92,SE,127,3.0,6.0,63,0.00,,,0.11,Wunderground v.1.15,2013-04-10 17:36:00,
2013-04-10 13:42:00,66.7,52.8,29.92,SSW,195,3.0,5.0,61,0.00,,,0.11,Wunderground v.1.15,2013-04-10 17:42:00,
2013-04-10 13:47:00,67.3,53.4,29.92,NNE,25,2.0,6.0,61,0.00,,,0.11,Wunderground v.1.15,2013-04-10 17:47:00,
2013-04-10 13:53:00,67.3,53.8,29.92,West,263,2.0,5.0,62,0.00,,,0.11,Wunderground v.1.15,2013-04-10 17:53:00,
2013-04-10 13:58:00,67.6,53.7,29.92,West,273,2.0,5.0,61,0.00,,,0.11,Wunderground v.1.15,2013-04-10 17:58:00,
2013-04-10 14:03:00,67.7,53.3,29.92,SW,226,3.0,6.0,60,0.00,,,0.11,Wunderground v.1.15,2013-04-10 18:03:00,
2013-04-10 14:09:00,68.2,54.2,29.92,SW,232,4.0,6.0,61,0.00,,,0.11,Wunderground v.1.15,2013-04-10 18:09:00,
2013-04-10 14:14:00,68.6,53.7,29.92,SSW,198,2.0,5.0,59,0.00,,,0.11,Wunderground v.1.15,2013-04-10 18:14:00,
2013-04-10 14:19:00,68.9,53.5,29.92,WSW,239,2.0,5.0,58,0.00,,,0.11,Wunderground v.1.15,2013-04-10 18:19:00,
2013-04-10 14:24:00,68.8,54.3,29.92,SW,233,3.0,5.0,60,0.00,,,0.11,Wunderground v.1.15,2013-04-10 18:24:00,
2013-04-10 14:30:00,69.6,54.2,29.91,South,181,2.0,5.0,58,0.00,,,0.11,Wunderground v.1.15,2013-04-10 18:30:00,
2013-04-10 14:37:00,68.9,53.5,29.91,East,87,1.0,5.0,58,0.00,,,0.11,Wunderground v.1.15,2013-04-10 18:37:00,
2013-04-10 14:42:00,68.9,53.5,29.90,SW,236,1.0,5.0,58,0.00,,,0.11,Wunderground v.1.15,2013-04-10 18:42:00,
2013-04-10 14:47:00,69.3,53.9,29.90,SW,225,1.0,5.0,58,0.00,,,0.11,Wunderground v.1.15,2013-04-10 18:47:00,
2013-04-10 14:52:00,69.0,53.6,29.90,ESE,117,1.0,5.0,58,0.00,,,0.11,Wunderground v.1.15,2013-04-10 18:52:00,
2013-04-10 14:57:00,69.4,54.0,29.90,WSW,242,1.0,5.0,58,0.00,,,0.11,Wunderground v.1.15,2013-04-10 18:57:00,
2013-04-10 15:02:00,69.0,54.1,29.89,WSW,254,1.0,5.0,59,0.00,,,0.11,Wunderground v.1.15,2013-04-10 19:02:00,
2013-04-10 15:08:00,68.7,53.8,29.89,West,276,1.0,5.0,59,0.00,,,0.11,Wunderground v.1.15,2013-04-10 19:08:00,
2013-04-10 15:13:00,68.8,54.3,29.89,West,276,0.0,5.0,60,0.00,,,0.11,Wunderground v.1.15,2013-04-10 19:13:00,
2013-04-10 15:18:00,68.7,53.8,29.88,SW,221,0.0,5.0,59,0.00,,,0.11,Wunderground v.1.15,2013-04-10 19:18:00,
2013-04-10 15:24:00,68.5,53.1,29.89,SW,225,0.0,5.0,58,0.00,,,0.11,Wunderground v.1.15,2013-04-10 19:24:00,
2013-04-10 15:29:00,68.2,53.3,29.88,NW,321,0.0,5.0,59,0.00,,,0.11,Wunderground v.1.15,2013-04-10 19:29:00,
2013-04-10 15:34:00,68.1,53.2,29.88,WSW,257,0.0,5.0,59,0.00,,,0.11,Wunderground v.1.15,2013-04-10 19:34:00,
2013-04-10 15:40:00,67.7,53.8,29.88,WSW,252,0.0,5.0,61,0.00,,,0.11,Wunderground v.1.15,2013-04-10 19:40:00,
2013-04-10 15:45:00,67.3,53.8,29.88,WSW,253,0.0,5.0,62,0.00,,,0.11,Wunderground v.1.15,2013-04-10 19:45:00,
2013-04-10 15:50:00,67.1,53.2,29.88,WSW,242,0.0,5.0,61,0.00,,,0.11,Wunderground v.1.15,2013-04-10 19:50:00,
2013-04-10 15:56:00,67.1,53.2,29.87,SSE,157,0.0,5.0,61,0.00,,,0.11,Wunderground v.1.15,2013-04-10 19:56:00,
2013-04-10 16:02:00,66.1,52.3,29.87,SE,146,2.0,5.0,61,0.00,,,0.11,Wunderground v.1.15,2013-04-10 20:02:00,
2013-04-10 16:07:00,64.9,51.6,29.87,SE,125,4.0,5.0,62,0.00,,,0.11,Wunderground v.1.15,2013-04-10 20:07:00,
2013-04-10 16:12:00,64.1,51.7,29.87,SSW,195,4.0,5.0,64,0.00,,,0.11,Wunderground v.1.15,2013-04-10 20:12:00,
2013-04-10 16:18:00,63.3,51.3,29.87,SE,146,4.0,8.0,65,0.00,,,0.11,Wunderground v.1.15,2013-04-10 20:18:00,
2013-04-10 16:23:00,63.2,51.2,29.88,SSW,200,4.0,6.0,65,0.00,,,0.11,Wunderground v.1.15,2013-04-10 20:23:00,
2013-04-10 16:28:00,63.2,51.2,29.88,ESE,112,4.0,7.0,65,0.00,,,0.11,Wunderground v.1.15,2013-04-10 20:28:00,
2013-04-10 16:34:00,63.7,51.3,29.89,West,260,4.0,6.0,64,0.00,,,0.11,Wunderground v.1.15,2013-04-10 20:34:00,
2013-04-10 16:42:00,63.0,50.2,29.88,WSW,257,5.0,6.0,63,0.00,,,0.11,Wunderground v.1.15,2013-04-10 20:42:00,
2013-04-10 16:47:00,62.4,50.5,29.88,SSW,203,5.0,6.0,65,0.00,,,0.11,Wunderground v.1.15,2013-04-10 20:47:00,
2013-04-10 16:53:00,62.0,49.7,29.88,SSE,156,4.0,6.0,64,0.00,,,0.11,Wunderground v.1.15,2013-04-10 20:53:00,
2013-04-10 16:58:00,61.1,49.7,29.88,SSW,197,5.0,7.0,66,0.00,,,0.11,Wunderground v.1.15,2013-04-10 20:58:00,
2013-04-10 17:03:00,60.7,49.3,29.88,SW,216,4.0,5.0,66,0.00,,,0.11,Wunderground v.1.15,2013-04-10 21:03:00,
2013-04-10 17:09:00,60.6,49.2,29.88,SW,229,4.0,5.0,66,0.00,,,0.11,Wunderground v.1.15,2013-04-10 21:09:00,
2013-04-10 17:15:00,59.8,49.6,29.88,South,190,5.0,8.0,69,0.00,,,0.11,Wunderground v.1.15,2013-04-10 21:15:00,
2013-04-10 17:20:00,59.3,49.5,29.88,SE,143,4.0,4.0,70,0.00,,,0.11,Wunderground v.1.15,2013-04-10 21:20:00,
2013-04-10 17:26:00,58.8,49.0,29.89,South,186,4.0,6.0,70,0.00,,,0.11,Wunderground v.1.15,2013-04-10 21:26:00,
2013-04-10 17:32:00,57.9,48.9,29.90,WSW,237,5.0,5.0,72,0.00,,,0.11,Wunderground v.1.15,2013-04-10 21:32:00,
2013-04-10 17:38:00,57.0,48.1,29.90,South,180,6.0,8.0,72,0.00,,,0.11,Wunderground v.1.15,2013-04-10 21:38:00,
2013-04-10 17:44:00,56.4,48.2,29.90,SW,226,6.0,8.0,74,0.00,,,0.11,Wunderground v.1.15,2013-04-10 21:44:00,
2013-04-10 17:49:00,55.6,48.2,29.90,SW,232,6.0,9.0,76,0.00,,,0.11,Wunderground v.1.15,2013-04-10 21:49:00,
2013-04-10 17:54:00,54.4,47.3,29.90,SSW,193,6.0,6.0,77,0.00,,,0.11,Wunderground v.1.15,2013-04-10 21:54:00,
2013-04-10 18:00:00,53.7,47.3,29.90,SSE,163,4.0,5.0,79,0.00,,,0.11,Wunderground v.1.15,2013-04-10 22:00:00,
2013-04-10 18:05:00,53.3,47.0,29.90,South,187,3.0,6.0,79,0.00,,,0.11,Wunderground v.1.15,2013-04-10 22:05:00,
2013-04-10 18:11:00,53.0,47.0,29.90,SW,234,3.0,5.0,80,0.00,,,0.11,Wunderground v.1.15,2013-04-10 22:11:00,
2013-04-10 18:16:00,53.0,47.0,29.90,SSW,204,4.0,6.0,80,0.00,,,0.11,Wunderground v.1.15,2013-04-10 22:16:00,
2013-04-10 18:21:00,53.0,47.0,29.89,ESE,103,3.0,5.0,80,0.00,,,0.11,Wunderground v.1.15,2013-04-10 22:21:00,
2013-04-10 18:27:00,52.8,46.8,29.89,SE,145,3.0,5.0,80,0.00,,,0.11,Wunderground v.1.15,2013-04-10 22:27:00,
2013-04-10 18:33:00,52.7,47.0,29.88,SW,215,2.0,5.0,81,0.00,,,0.11,Wunderground v.1.15,2013-04-10 22:33:00,
2013-04-10 18:39:00,52.4,46.4,29.88,SW,219,2.0,5.0,80,0.00,,,0.11,Wunderground v.1.15,2013-04-10 22:39:00,
2013-04-10 18:44:00,52.0,46.0,29.87,SW,218,3.0,8.0,80,0.00,,,0.11,Wunderground v.1.15,2013-04-10 22:44:00,
2013-04-10 18:50:00,51.4,45.8,29.88,SSW,192,5.0,5.0,81,0.00,,,0.11,Wunderground v.1.15,2013-04-10 22:50:00,
2013-04-10 18:56:00,50.9,45.6,29.89,SE,140,4.0,6.0,82,0.00,,,0.11,Wunderground v.1.15,2013-04-10 22:56:00,
2013-04-10 19:01:00,50.5,45.2,29.89,SSW,210,3.0,5.0,82,0.00,,,0.11,Wunderground v.1.15,2013-04-10 23:01:00,
2013-04-10 19:06:00,50.2,45.2,29.89,WSW,249,3.0,5.0,83,0.00,,,0.11,Wunderground v.1.15,2013-04-10 23:06:00,
2013-04-10 19:12:00,50.0,45.4,29.89,SSW,208,3.0,5.0,84,0.00,,,0.11,Wunderground v.1.15,2013-04-10 23:12:00,
2013-04-10 19:17:00,49.7,45.1,29.88,SSW,207,3.0,6.0,84,0.00,,,0.11,Wunderground v.1.15,2013-04-10 23:17:00,
2013-04-10 19:23:00,49.6,45.0,29.88,SW,218,3.0,5.0,84,0.00,,,0.11,Wunderground v.1.15,2013-04-10 23:23:00,
2013-04-10 19:29:00,49.4,45.1,29.87,SW,234,3.0,5.0,85,0.00,,,0.11,Wunderground v.1.15,2013-04-10 23:29:00,
2013-04-10 19:34:00,49.1,44.8,29.87,ESE,116,3.0,5.0,85,0.00,,,0.11,Wunderground v.1.15,2013-04-10 23:34:00,
2013-04-10 19:40:00,48.7,44.7,29.86,SE,146,3.0,5.0,86,0.00,,,0.11,Wunderground v.1.15,2013-04-10 23:40:00,
2013-04-10 19:45:00,48.5,44.5,29.86,ESE,113,3.0,5.0,86,0.00,,,0.11,Wunderground v.1.15,2013-04-10 23:45:00,
2013-04-10 19:51:00,48.3,44.6,29.86,SW,218,2.0,3.0,87,0.00,,,0.11,Wunderground v.1.15,2013-04-10 23:51:00,
2013-04-10 19:56:00,48.0,44.3,29.86,SSE,166,3.0,5.0,87,0.00,,,0.11,Wunderground v.1.15,2013-04-10 23:56:00,
2013-04-10 20:01:00,47.7,44.3,29.86,SSE,163,3.0,5.0,88,0.00,,,0.11,Wunderground v.1.15,2013-04-11 00:01:00,
2013-04-10 20:06:00,47.5,44.4,29.86,SSE,149,2.0,5.0,89,0.00,,,0.11,Wunderground v.1.15,2013-04-11 00:06:00,
2013-04-10 20:12:00,47.4,44.3,29.86,SSW,210,1.0,5.0,89,0.00,,,0.11,Wunderground v.1.15,2013-04-11 00:12:00,
2013-04-10 20:17:00,47.2,44.1,29.86,SW,226,2.0,6.0,89,0.00,,,0.11,Wunderground v.1.15,2013-04-11 00:17:00,
2013-04-10 20:23:00,46.8,44.0,29.87,SSW,208,4.0,6.0,90,0.00,,,0.11,Wunderground v.1.15,2013-04-11 00:23:00,
2013-04-10 20:29:00,46.6,43.8,29.89,WSW,254,3.0,6.0,90,0.00,,,0.11,Wunderground v.1.15,2013-04-11 00:29:00,
2013-04-10 20:35:00,46.9,44.4,30.06,West,271,3.0,6.0,91,0.00,,,0.11,Wunderground v.1.15,2013-04-11 00:35:00,
2013-04-10 20:40:00,47.5,45.0,29.95,ESE,105,4.0,4.0,91,0.55,,,0.15,Wunderground v.1.15,2013-04-11 00:40:00,
2013-04-10 20:47:00,47.7,45.2,29.94,East,79,2.0,5.0,91,0.31,,,0.20,Wunderground v.1.15,2013-04-11 00:47:00,
2013-04-10 20:52:00,47.7,45.5,29.93,South,174,1.0,5.0,92,0.17,,,0.21,Wunderground v.1.15,2013-04-11 00:52:00,
2013-04-10 20:58:00,47.7,45.8,29.91,South,174,0.0,5.0,93,0.11,,,0.22,Wunderground v.1.15,2013-04-11 00:58:00,
2013-04-10 21:03:00,47.7,45.8,29.90,SSW,193,0.0,5.0,93,0.16,,,0.24,Wunderground v.1.15,2013-04-11 01:03:00,
2013-04-10 21:09:00,47.6,45.7,29.91,East,83,0.0,5.0,93,0.24,,,0.26,Wunderground v.1.15,2013-04-11 01:09:00,
2013-04-10 21:15:00,47.6,45.7,29.91,NE,39,1.0,5.0,93,0.10,,,0.27,Wunderground v.1.15,2013-04-11 01:15:00,
2013-04-10 21:21:00,47.5,45.9,29.90,East,84,2.0,5.0,94,0.08,,,0.27,Wunderground v.1.15,2013-04-11 01:21:00,
2013-04-10 21:26:00,47.5,45.9,29.89,ENE,64,1.0,5.0,94,0.05,,,0.27,Wunderground v.1.15,2013-04-11 01:26:00,
2013-04-10 21:32:00,47.5,45.9,29.86,East,98,1.0,5.0,94,0.00,,,0.27,Wunderground v.1.15,2013-04-11 01:32:00,
2013-04-10 21:38:00,47.3,45.7,29.86,ENE,74,2.0,5.0,94,0.00,,,0.27,Wunderground v.1.15,2013-04-11 01:38:00,
2013-04-10 21:44:00,47.2,45.6,29.87,ESE,121,1.0,5.0,94,0.00,,,0.27,Wunderground v.1.15,2013-04-11 01:44:00,
2013-04-10 21:49:00,47.1,45.5,29.86,ESE,114,1.0,5.0,94,0.00,,,0.27,Wunderground v.1.15,2013-04-11 01:49:00,
2013-04-10 21:55:00,47.0,45.4,29.86,NE,51,1.0,5.0,94,0.00,,,0.27,Wunderground v.1.15,2013-04-11 01:55:00,
2013-04-10 22:00:00,47.0,45.4,29.85,SE,134,1.0,5.0,94,0.00,,,0.27,Wunderground v.1.15,2013-04-11 02:00:00,
2013-04-10 22:06:00,47.0,45.4,29.84,South,188,1.0,5.0,94,0.00,,,0.27,Wunderground v.1.15,2013-04-11 02:06:00,
2013-04-10 22:12:00,46.9,45.3,29.85,West,271,1.0,5.0,94,0.00,,,0.27,Wunderground v.1.15,2013-04-11 02:12:00,
2013-04-10 22:17:00,47.0,45.4,29.85,ESE,102,1.0,5.0,94,0.00,,,0.27,Wunderground v.1.15,2013-04-11 02:17:00,
2013-04-10 22:23:00,47.0,45.6,29.85,SSE,159,1.0,5.0,95,0.00,,,0.27,Wunderground v.1.15,2013-04-11 02:23:00,
2013-04-10 22:29:00,46.9,45.5,29.85,SE,124,2.0,5.0,95,0.00,,,0.27,Wunderground v.1.15,2013-04-11 02:29:00,
2013-04-10 22:35:00,47.0,45.6,29.86,SSW,201,1.0,5.0,95,0.00,,,0.27,Wunderground v.1.15,2013-04-11 02:35:00,
2013-04-10 22:41:00,47.0,45.6,29.87,SW,236,1.0,5.0,95,0.00,,,0.27,Wunderground v.1.15,2013-04-11 02:41:00,
2013-04-10 22:46:00,46.9,45.5,29.87,SSE,149,1.0,5.0,95,0.00,,,0.27,Wunderground v.1.15,2013-04-11 02:46:00,
2013-04-10 22:51:00,46.9,45.5,29.87,SW,229,1.0,5.0,95,0.00,,,0.27,Wunderground v.1.15,2013-04-11 02:51:00,
2013-04-10 22:57:00,46.8,45.4,29.87,SW,236,1.0,5.0,95,0.00,,,0.27,Wunderground v.1.15,2013-04-11 02:57:00,
2013-04-10 23:02:00,46.8,45.4,29.88,SW,233,1.0,5.0,95,0.00,,,0.27,Wunderground v.1.15,2013-04-11 03:02:00,
2013-04-10 23:08:00,46.7,45.3,29.88,SW,228,1.0,5.0,95,0.00,,,0.27,Wunderground v.1.15,2013-04-11 03:08:00,
2013-04-10 23:14:00,46.7,45.3,29.88,West,259,1.0,1.0,95,0.00,,,0.27,Wunderground v.1.15,2013-04-11 03:14:00,
2013-04-10 23:20:00,46.7,45.3,29.87,SSW,200,0.0,0.0,95,0.00,,,0.28,Wunderground v.1.15,2013-04-11 03:20:00,
2013-04-10 23:28:00,46.7,45.3,29.87,SSE,160,0.0,0.0,95,0.00,,,0.28,Wunderground v.1.15,2013-04-11 03:28:00,
2013-04-10 23:33:00,46.7,45.3,29.87,SSE,160,0.0,0.0,95,0.00,,,0.28,Wunderground v.1.15,2013-04-11 03:33:00,
2013-04-10 23:39:00,46.7,45.3,29.88,SSE,160,0.0,0.0,95,0.00,,,0.28,Wunderground v.1.15,2013-04-11 03:39:00,
2013-04-10 23:45:00,46.7,45.3,29.88,SSE,159,0.0,0.0,95,0.00,,,0.28,Wunderground v.1.15,2013-04-11 03:45:00,
2013-04-10 23:50:00,46.7,45.3,29.87,SSE,159,0.0,0.0,95,0.00,,,0.29,Wunderground v.1.15,2013-04-11 03:50:00,
2013-04-10 23:56:00,46.7,45.3,29.87,SSE,159,0.0,0.0,95,0.07,,,0.30,Wunderground v.1.15,2013-04-11 03:56:00,